sensor_id;sensor_type;location;lat;lon;timestamp;temperature;humidity
9939;DHT22;5008;50.656;7.188;2024-01-10T05:01:06;-5.10;99.90
9939;DHT22;5008;50.656;7.188;2024-01-10T05:03:56;-5.10;99.90
9939;DHT22;5008;50.656;7.188;2024-01-10T05:06:31;-5.20;99.90
9939;DHT22;5008;50.656;7.188;2024-01-10T05:09:01;-5.20;99.90
9939;DHT22;5008;50.656;7.188;2024-01-10T05:11:42;-5.10;99.90
9939;DHT22;5008;50.656;7.188;2024-01-10T05:14:20;-5.00;99.90
9939;DHT22;5008;50.656;7.188;2024-01-10T05:16:51;-4.90;99.90
9939;DHT22;5008;50.656;7.188;2024-01-10T05:19:19;-4.90;99.90
9939;DHT22;5008;50.656;7.188;2024-01-10T05:21:45;-4.80;99.90
9939;DHT22;5008;50.656;7.188;2024-01-10T05:24:12;-4.90;99.90
9939;DHT22;5008;50.656;7.188;2024-01-10T05:26:39;-4.80;99.90
9939;DHT22;5008;50.656;7.188;2024-01-10T05:29:06;-4.90;99.90
9939;DHT22;5008;50.656;7.188;2024-01-10T05:31:33;-5.10;99.90
9939;DHT22;5008;50.656;7.188;2024-01-10T05:34:01;-5.10;99.90
9939;DHT22;5008;50.656;7.188;2024-01-10T05:36:30;-5.00;99.90
9939;DHT22;5008;50.656;7.188;2024-01-10T05:38:57;-5.00;99.90
9939;DHT22;5008;50.656;7.188;2024-01-10T05:41:23;-4.80;99.90
9939;DHT22;5008;50.656;7.188;2024-01-10T05:43:51;-4.80;99.90
9939;DHT22;5008;50.656;7.188;2024-01-10T05:46:18;-4.70;99.90
9939;DHT22;5008;50.656;7.188;2024-01-10T05:48:45;-4.70;99.90
9939;DHT22;5008;50.656;7.188;2024-01-10T05:51:15;-5.10;99.90
9939;DHT22;5008;50.656;7.188;2024-01-10T05:53:43;-5.10;99.90
9939;DHT22;5008;50.656;7.188;2024-01-10T05:56:09;-5.10;99.90
9939;DHT22;5008;50.656;7.188;2024-01-10T05:58:37;-4.90;99.90
9939;DHT22;5008;50.656;7.188;2024-01-10T06:01:05;-4.90;99.90
9939;DHT22;5008;50.656;7.188;2024-01-10T06:03:35;-4.90;99.90
9939;DHT22;5008;50.656;7.188;2024-01-10T06:06:02;-4.90;99.90
9939;DHT22;5008;50.656;7.188;2024-01-10T06:08:31;-4.90;99.90
9939;DHT22;5008;50.656;7.188;2024-01-10T06:10:57;-5.00;99.90
9939;DHT22;5008;50.656;7.188;2024-01-10T06:13:24;-4.90;99.90
9939;DHT22;5008;50.656;7.188;2024-01-10T06:15:51;-4.80;99.90
9939;DHT22;5008;50.656;7.188;2024-01-10T06:18:18;-4.70;99.90
9939;DHT22;5008;50.656;7.188;2024-01-10T06:20:45;-4.80;99.90
9939;DHT22;5008;50.656;7.188;2024-01-10T06:23:12;-5.00;99.90
9939;DHT22;5008;50.656;7.188;2024-01-10T06:25:40;-5.10;99.90
9939;DHT22;5008;50.656;7.188;2024-01-10T06:28:07;-5.10;99.90
9939;DHT22;5008;50.656;7.188;2024-01-10T06:30:33;-4.90;99.90
9939;DHT22;5008;50.656;7.188;2024-01-10T06:33:01;-4.90;99.90
9939;DHT22;5008;50.656;7.188;2024-01-10T06:35:28;-4.80;99.90
9939;DHT22;5008;50.656;7.188;2024-01-10T06:37:55;-4.80;99.90
9939;DHT22;5008;50.656;7.188;2024-01-10T06:40:21;-4.90;99.90
9939;DHT22;5008;50.656;7.188;2024-01-10T06:42:49;-4.90;99.90
9939;DHT22;5008;50.656;7.188;2024-01-10T06:45:16;-4.70;99.90
9939;DHT22;5008;50.656;7.188;2024-01-10T06:47:45;-4.80;99.90
9939;DHT22;5008;50.656;7.188;2024-01-10T06:50:12;-4.80;99.90
9939;DHT22;5008;50.656;7.188;2024-01-10T06:52:39;-4.80;99.90
9939;DHT22;5008;50.656;7.188;2024-01-10T06:55:07;-4.80;99.90
9939;DHT22;5008;50.656;7.188;2024-01-10T06:57:34;-4.90;99.90
9939;DHT22;5008;50.656;7.188;2024-01-10T07:00:03;-4.80;99.90
9939;DHT22;5008;50.656;7.188;2024-01-10T07:02:32;-4.80;99.90
9939;DHT22;5008;50.656;7.188;2024-01-10T07:05:01;-4.70;99.90
9939;DHT22;5008;50.656;7.188;2024-01-10T07:07:28;-4.70;99.90
9939;DHT22;5008;50.656;7.188;2024-01-10T07:09:54;-4.70;99.90
9939;DHT22;5008;50.656;7.188;2024-01-10T07:12:21;-4.70;99.90
9939;DHT22;5008;50.656;7.188;2024-01-10T07:14:48;-4.80;99.90
9939;DHT22;5008;50.656;7.188;2024-01-10T07:17:16;-4.70;99.90
9939;DHT22;5008;50.656;7.188;2024-01-10T07:19:43;-4.80;99.90
9939;DHT22;5008;50.656;7.188;2024-01-10T07:22:11;-4.70;99.90
9939;DHT22;5008;50.656;7.188;2024-01-10T07:24:38;-4.80;99.90
9939;DHT22;5008;50.656;7.188;2024-01-10T07:27:05;-4.80;99.90
9939;DHT22;5008;50.656;7.188;2024-01-10T07:29:32;-4.80;99.90
9939;DHT22;5008;50.656;7.188;2024-01-10T07:31:59;-4.80;99.90
9939;DHT22;5008;50.656;7.188;2024-01-10T07:34:27;-4.80;99.90
9939;DHT22;5008;50.656;7.188;2024-01-10T07:36:53;-4.70;99.90
9939;DHT22;5008;50.656;7.188;2024-01-10T07:39:20;-4.70;99.90
9939;DHT22;5008;50.656;7.188;2024-01-10T07:41:47;-4.70;99.90
9939;DHT22;5008;50.656;7.188;2024-01-10T07:44:15;-4.70;99.90
9939;DHT22;5008;50.656;7.188;2024-01-10T07:46:42;-4.80;99.90
9939;DHT22;5008;50.656;7.188;2024-01-10T07:49:08;-4.80;99.90
9939;DHT22;5008;50.656;7.188;2024-01-10T07:51:37;-4.70;99.90
9939;DHT22;5008;50.656;7.188;2024-01-10T07:54:03;-4.70;99.90
9939;DHT22;5008;50.656;7.188;2024-01-10T07:56:30;-4.70;99.90
9939;DHT22;5008;50.656;7.188;2024-01-10T07:58:56;-4.70;99.90
9939;DHT22;5008;50.656;7.188;2024-01-10T08:01:23;-4.70;99.90
9939;DHT22;5008;50.656;7.188;2024-01-10T08:03:50;-4.70;99.90
9939;DHT22;5008;50.656;7.188;2024-01-10T08:06:17;-4.60;99.90
9939;DHT22;5008;50.656;7.188;2024-01-10T08:08:45;-4.70;99.90
9939;DHT22;5008;50.656;7.188;2024-01-10T08:11:12;-4.60;99.90
9939;DHT22;5008;50.656;7.188;2024-01-10T08:13:39;-4.60;99.90
9939;DHT22;5008;50.656;7.188;2024-01-10T08:16:06;-4.50;99.90
9939;DHT22;5008;50.656;7.188;2024-01-10T08:18:34;-4.40;99.90
9939;DHT22;5008;50.656;7.188;2024-01-10T08:21:00;-4.50;99.90
9939;DHT22;5008;50.656;7.188;2024-01-10T08:23:29;-4.40;99.90
9939;DHT22;5008;50.656;7.188;2024-01-10T08:25:57;-4.40;99.90
9939;DHT22;5008;50.656;7.188;2024-01-10T08:28:24;-4.40;99.90
9939;DHT22;5008;50.656;7.188;2024-01-10T08:30:52;-4.30;99.90
9939;DHT22;5008;50.656;7.188;2024-01-10T08:33:18;-4.20;99.90
9939;DHT22;5008;50.656;7.188;2024-01-10T08:35:45;-4.00;99.90
9939;DHT22;5008;50.656;7.188;2024-01-10T08:38:12;-3.90;99.90
9939;DHT22;5008;50.656;7.188;2024-01-10T08:40:39;-3.80;99.90
9939;DHT22;5008;50.656;7.188;2024-01-10T08:43:07;-3.70;99.90
9939;DHT22;5008;50.656;7.188;2024-01-10T08:45:34;-3.70;99.90
9939;DHT22;5008;50.656;7.188;2024-01-10T08:48:01;-3.70;99.90
9939;DHT22;5008;50.656;7.188;2024-01-10T08:50:28;-3.80;99.90
9939;DHT22;5008;50.656;7.188;2024-01-10T08:52:54;-3.80;99.90
9939;DHT22;5008;50.656;7.188;2024-01-10T08:55:21;-3.70;99.90
9939;DHT22;5008;50.656;7.188;2024-01-10T08:57:48;-3.60;99.90
9939;DHT22;5008;50.656;7.188;2024-01-10T09:00:17;-3.50;99.90
9939;DHT22;5008;50.656;7.188;2024-01-10T09:02:43;-3.30;99.90
9939;DHT22;5008;50.656;7.188;2024-01-10T09:05:10;-3.10;99.90
9939;DHT22;5008;50.656;7.188;2024-01-10T09:07:37;-3.00;99.90
9939;DHT22;5008;50.656;7.188;2024-01-10T09:10:05;-2.80;99.90
9939;DHT22;5008;50.656;7.188;2024-01-10T09:12:33;-2.70;99.90
9939;DHT22;5008;50.656;7.188;2024-01-10T09:15:00;-2.50;99.90
9939;DHT22;5008;50.656;7.188;2024-01-10T09:17:28;-2.50;99.90
9939;DHT22;5008;50.656;7.188;2024-01-10T09:19:55;-2.40;99.90
9939;DHT22;5008;50.656;7.188;2024-01-10T09:22:21;-2.40;99.90
9939;DHT22;5008;50.656;7.188;2024-01-10T09:24:48;-2.30;99.90
9939;DHT22;5008;50.656;7.188;2024-01-10T09:27:15;-2.20;99.90
9939;DHT22;5008;50.656;7.188;2024-01-10T09:29:42;-2.20;99.90
9939;DHT22;5008;50.656;7.188;2024-01-10T09:32:09;-2.10;99.90
9939;DHT22;5008;50.656;7.188;2024-01-10T09:34:37;-2.10;99.90
9939;DHT22;5008;50.656;7.188;2024-01-10T09:37:04;-2.00;99.90
9939;DHT22;5008;50.656;7.188;2024-01-10T09:39:31;-1.90;99.90
9939;DHT22;5008;50.656;7.188;2024-01-10T09:41:58;-2.00;99.90
9939;DHT22;5008;50.656;7.188;2024-01-10T09:44:25;-2.10;99.90
9939;DHT22;5008;50.656;7.188;2024-01-10T09:46:53;-2.10;99.90
9939;DHT22;5008;50.656;7.188;2024-01-10T09:49:20;-2.10;99.90
9939;DHT22;5008;50.656;7.188;2024-01-10T09:51:49;-2.00;99.90
9939;DHT22;5008;50.656;7.188;2024-01-10T09:54:17;-1.90;99.90
9939;DHT22;5008;50.656;7.188;2024-01-10T09:56:45;-1.90;99.90
9939;DHT22;5008;50.656;7.188;2024-01-10T09:59:13;-1.80;99.90
9939;DHT22;5008;50.656;7.188;2024-01-10T10:01:40;-1.80;99.90
9939;DHT22;5008;50.656;7.188;2024-01-10T10:04:11;-1.90;99.90
9939;DHT22;5008;50.656;7.188;2024-01-10T10:06:38;-2.00;99.90
9939;DHT22;5008;50.656;7.188;2024-01-10T10:09:07;-2.00;99.90
9939;DHT22;5008;50.656;7.188;2024-01-10T10:11:34;-1.90;99.90
9939;DHT22;5008;50.656;7.188;2024-01-10T10:14:14;-1.90;99.90
9939;DHT22;5008;50.656;7.188;2024-01-10T10:16:41;-1.70;99.90
9939;DHT22;5008;50.656;7.188;2024-01-10T10:19:08;-1.70;99.90
9939;DHT22;5008;50.656;7.188;2024-01-10T10:21:37;-1.60;99.90
9939;DHT22;5008;50.656;7.188;2024-01-10T10:24:05;-1.60;99.90
9939;DHT22;5008;50.656;7.188;2024-01-10T10:26:33;-1.60;99.90
9939;DHT22;5008;50.656;7.188;2024-01-10T10:29:00;-1.50;99.90
9939;DHT22;5008;50.656;7.188;2024-01-10T10:31:27;-1.50;99.90
9939;DHT22;5008;50.656;7.188;2024-01-10T10:33:54;-1.50;99.90
9939;DHT22;5008;50.656;7.188;2024-01-10T10:36:22;-1.40;99.90
9939;DHT22;5008;50.656;7.188;2024-01-10T10:38:49;-1.30;99.90
9939;DHT22;5008;50.656;7.188;2024-01-10T10:41:18;-1.20;99.90
9939;DHT22;5008;50.656;7.188;2024-01-10T10:43:45;-1.30;99.90
9939;DHT22;5008;50.656;7.188;2024-01-10T10:46:13;-1.30;99.90
9939;DHT22;5008;50.656;7.188;2024-01-10T10:48:40;-1.20;99.90
9939;DHT22;5008;50.656;7.188;2024-01-10T10:51:09;-1.10;99.90
9939;DHT22;5008;50.656;7.188;2024-01-10T10:53:37;-1.00;99.90
9939;DHT22;5008;50.656;7.188;2024-01-10T10:56:06;-1.00;99.90
9939;DHT22;5008;50.656;7.188;2024-01-10T10:58:36;-0.90;99.90
9939;DHT22;5008;50.656;7.188;2024-01-10T11:01:05;-0.90;99.90
9939;DHT22;5008;50.656;7.188;2024-01-10T11:03:35;-0.90;99.90
9939;DHT22;5008;50.656;7.188;2024-01-10T11:06:03;-0.90;99.90
9939;DHT22;5008;50.656;7.188;2024-01-10T11:08:34;-1.00;99.90
9939;DHT22;5008;50.656;7.188;2024-01-10T11:11:03;-0.90;99.90
9939;DHT22;5008;50.656;7.188;2024-01-10T11:13:45;-0.90;99.90
9939;DHT22;5008;50.656;7.188;2024-01-10T11:21:55;-0.20;99.90
9939;DHT22;5008;50.656;7.188;2024-01-10T11:24:26;-0.30;99.90
9939;DHT22;5008;50.656;7.188;2024-01-10T11:27:06;-0.30;99.90
9939;DHT22;5008;50.656;7.188;2024-01-10T11:29:38;-0.30;99.90
9939;DHT22;5008;50.656;7.188;2024-01-10T11:32:06;-0.20;99.90
9939;DHT22;5008;50.656;7.188;2024-01-10T11:34:35;0.00;99.90
9939;DHT22;5008;50.656;7.188;2024-01-10T11:37:11;0.00;99.90
9939;DHT22;5008;50.656;7.188;2024-01-10T11:39:41;-0.10;99.90
9939;DHT22;5008;50.656;7.188;2024-01-10T11:42:08;-0.20;99.90
9939;DHT22;5008;50.656;7.188;2024-01-10T11:44:48;-0.30;99.90
9939;DHT22;5008;50.656;7.188;2024-01-10T11:47:15;-0.30;99.90
9939;DHT22;5008;50.656;7.188;2024-01-10T11:49:55;-0.30;99.90
9939;DHT22;5008;50.656;7.188;2024-01-10T11:52:23;-0.20;99.90
9939;DHT22;5008;50.656;7.188;2024-01-10T11:54:50;-0.20;99.90
9939;DHT22;5008;50.656;7.188;2024-01-10T11:57:20;-0.20;99.90
9939;DHT22;5008;50.656;7.188;2024-01-10T11:59:50;-0.20;99.90
9939;DHT22;5008;50.656;7.188;2024-01-10T12:02:20;-0.20;99.90
9939;DHT22;5008;50.656;7.188;2024-01-10T12:04:49;-0.20;99.90
9939;DHT22;5008;50.656;7.188;2024-01-10T12:07:18;-0.20;99.90
9939;DHT22;5008;50.656;7.188;2024-01-10T12:09:53;-0.10;99.90
9939;DHT22;5008;50.656;7.188;2024-01-10T12:12:20;0.00;99.90
9939;DHT22;5008;50.656;7.188;2024-01-10T12:14:50;-0.10;99.90
9939;DHT22;5008;50.656;7.188;2024-01-10T12:17:20;0.00;99.90
9939;DHT22;5008;50.656;7.188;2024-01-10T12:19:51;0.00;99.90
9939;DHT22;5008;50.656;7.188;2024-01-10T12:22:24;0.10;99.90
9939;DHT22;5008;50.656;7.188;2024-01-10T12:25:14;0.10;99.90
9939;DHT22;5008;50.656;7.188;2024-01-10T12:27:46;0.20;99.90
9939;DHT22;5008;50.656;7.188;2024-01-10T12:30:39;0.50;99.90
9939;DHT22;5008;50.656;7.188;2024-01-10T12:33:08;0.60;99.90
9939;DHT22;5008;50.656;7.188;2024-01-10T12:35:35;0.80;99.90
9939;DHT22;5008;50.656;7.188;2024-01-10T12:38:03;0.80;99.90
9939;DHT22;5008;50.656;7.188;2024-01-10T12:40:32;1.00;99.90
9939;DHT22;5008;50.656;7.188;2024-01-10T12:43:02;1.20;99.90
9939;DHT22;5008;50.656;7.188;2024-01-10T12:45:29;1.50;99.90
9939;DHT22;5008;50.656;7.188;2024-01-10T12:47:58;1.60;99.90
9939;DHT22;5008;50.656;7.188;2024-01-10T12:50:55;1.70;99.90
9939;DHT22;5008;50.656;7.188;2024-01-10T12:53:21;1.80;99.90
9939;DHT22;5008;50.656;7.188;2024-01-10T12:55:48;2.10;99.90
9939;DHT22;5008;50.656;7.188;2024-01-10T12:58:17;1.80;99.90
9939;DHT22;5008;50.656;7.188;2024-01-10T13:00:45;1.70;99.90
9939;DHT22;5008;50.656;7.188;2024-01-10T13:03:13;1.70;99.90
9939;DHT22;5008;50.656;7.188;2024-01-10T13:05:40;1.80;99.90
9939;DHT22;5008;50.656;7.188;2024-01-10T13:08:19;1.80;99.90
9939;DHT22;5008;50.656;7.188;2024-01-10T13:10:48;1.80;99.90
9939;DHT22;5008;50.656;7.188;2024-01-10T13:13:15;1.60;99.90
9939;DHT22;5008;50.656;7.188;2024-01-10T13:15:43;1.40;99.90
9939;DHT22;5008;50.656;7.188;2024-01-10T13:18:13;1.50;99.90
9939;DHT22;5008;50.656;7.188;2024-01-10T13:20:40;1.40;99.90
9939;DHT22;5008;50.656;7.188;2024-01-10T13:23:08;1.40;99.90
9939;DHT22;5008;50.656;7.188;2024-01-10T13:25:41;1.40;99.90
9939;DHT22;5008;50.656;7.188;2024-01-10T13:28:16;1.30;99.90
9939;DHT22;5008;50.656;7.188;2024-01-10T13:30:48;1.30;99.90
9939;DHT22;5008;50.656;7.188;2024-01-10T13:33:18;1.30;99.90
9939;DHT22;5008;50.656;7.188;2024-01-10T13:36:00;1.30;99.90
9939;DHT22;5008;50.656;7.188;2024-01-10T13:38:28;1.40;99.90
9939;DHT22;5008;50.656;7.188;2024-01-10T13:40:55;1.50;99.90
9939;DHT22;5008;50.656;7.188;2024-01-10T13:43:21;1.50;99.90
9939;DHT22;5008;50.656;7.188;2024-01-10T13:45:48;1.70;99.90
9939;DHT22;5008;50.656;7.188;2024-01-10T13:48:17;1.90;99.90
9939;DHT22;5008;50.656;7.188;2024-01-10T13:50:44;2.10;99.90
9939;DHT22;5008;50.656;7.188;2024-01-10T13:53:11;2.20;99.90
9939;DHT22;5008;50.656;7.188;2024-01-10T13:55:38;2.40;99.60
9939;DHT22;5008;50.656;7.188;2024-01-10T13:58:05;2.60;99.10
9939;DHT22;5008;50.656;7.188;2024-01-10T14:00:33;2.60;98.90
9939;DHT22;5008;50.656;7.188;2024-01-10T14:03:00;2.70;98.60
9939;DHT22;5008;50.656;7.188;2024-01-10T14:05:28;2.70;98.70
9939;DHT22;5008;50.656;7.188;2024-01-10T14:07:56;2.90;98.50
9939;DHT22;5008;50.656;7.188;2024-01-10T14:10:22;3.00;98.40
9939;DHT22;5008;50.656;7.188;2024-01-10T14:12:49;3.70;98.90
9939;DHT22;5008;50.656;7.188;2024-01-10T14:15:16;5.10;98.30
9939;DHT22;5008;50.656;7.188;2024-01-10T14:17:43;6.60;98.10
9939;DHT22;5008;50.656;7.188;2024-01-10T14:20:10;7.30;95.50
9939;DHT22;5008;50.656;7.188;2024-01-10T14:22:40;7.60;94.30
9939;DHT22;5008;50.656;7.188;2024-01-10T14:25:08;6.50;94.50
9939;DHT22;5008;50.656;7.188;2024-01-10T14:27:36;5.60;94.50
9939;DHT22;5008;50.656;7.188;2024-01-10T14:30:05;4.90;95.60
9939;DHT22;5008;50.656;7.188;2024-01-10T14:32:34;4.40;96.20
9939;DHT22;5008;50.656;7.188;2024-01-10T14:35:01;3.90;96.80
9939;DHT22;5008;50.656;7.188;2024-01-10T14:37:28;3.40;97.30
9939;DHT22;5008;50.656;7.188;2024-01-10T14:39:56;3.30;97.60
9939;DHT22;5008;50.656;7.188;2024-01-10T14:42:23;3.30;97.10
9939;DHT22;5008;50.656;7.188;2024-01-10T14:44:50;3.30;97.00
9939;DHT22;5008;50.656;7.188;2024-01-10T14:47:17;3.20;98.10
9939;DHT22;5008;50.656;7.188;2024-01-10T14:49:44;3.00;97.70
9939;DHT22;5008;50.656;7.188;2024-01-10T14:52:11;3.00;97.40
9939;DHT22;5008;50.656;7.188;2024-01-10T14:54:37;2.80;97.80
9939;DHT22;5008;50.656;7.188;2024-01-10T14:57:06;2.70;97.80
9939;DHT22;5008;50.656;7.188;2024-01-10T14:59:33;2.70;97.90
9939;DHT22;5008;50.656;7.188;2024-01-10T15:01:59;2.60;97.60
9939;DHT22;5008;50.656;7.188;2024-01-10T15:04:26;2.60;97.50
9939;DHT22;5008;50.656;7.188;2024-01-10T15:06:55;2.50;97.90
9939;DHT22;5008;50.656;7.188;2024-01-10T15:09:23;2.20;98.10
9939;DHT22;5008;50.656;7.188;2024-01-10T15:11:49;2.10;98.30
9939;DHT22;5008;50.656;7.188;2024-01-10T15:14:17;2.10;98.20
9939;DHT22;5008;50.656;7.188;2024-01-10T15:16:46;1.90;98.40
9939;DHT22;5008;50.656;7.188;2024-01-10T15:19:12;1.80;98.40
9939;DHT22;5008;50.656;7.188;2024-01-10T15:21:39;1.70;98.60
9939;DHT22;5008;50.656;7.188;2024-01-10T15:24:06;1.50;99.20
9939;DHT22;5008;50.656;7.188;2024-01-10T15:26:33;1.40;99.40
9939;DHT22;5008;50.656;7.188;2024-01-10T15:28:59;1.30;99.60
9939;DHT22;5008;50.656;7.188;2024-01-10T15:31:29;1.20;99.90
9939;DHT22;5008;50.656;7.188;2024-01-10T15:33:57;1.00;99.90
9939;DHT22;5008;50.656;7.188;2024-01-10T15:36:24;1.00;99.90
9939;DHT22;5008;50.656;7.188;2024-01-10T15:38:51;0.90;99.90
9939;DHT22;5008;50.656;7.188;2024-01-10T15:41:17;0.80;99.90
9939;DHT22;5008;50.656;7.188;2024-01-10T15:43:44;0.70;99.90
9939;DHT22;5008;50.656;7.188;2024-01-10T15:46:17;0.60;99.90
9939;DHT22;5008;50.656;7.188;2024-01-10T15:48:46;0.60;99.90
9939;DHT22;5008;50.656;7.188;2024-01-10T15:51:13;0.50;99.90
9939;DHT22;5008;50.656;7.188;2024-01-10T15:53:40;0.40;99.90
9939;DHT22;5008;50.656;7.188;2024-01-10T15:56:13;0.40;99.90
9939;DHT22;5008;50.656;7.188;2024-01-10T15:58:40;0.40;99.90
9939;DHT22;5008;50.656;7.188;2024-01-10T16:01:07;0.30;99.90
9939;DHT22;5008;50.656;7.188;2024-01-10T16:03:34;0.20;99.90
9939;DHT22;5008;50.656;7.188;2024-01-10T16:06:03;0.20;99.90
9939;DHT22;5008;50.656;7.188;2024-01-10T16:08:29;0.20;99.90
9939;DHT22;5008;50.656;7.188;2024-01-10T16:10:56;0.10;99.90
9939;DHT22;5008;50.656;7.188;2024-01-10T16:13:23;0.10;99.90
9939;DHT22;5008;50.656;7.188;2024-01-10T16:15:53;0.10;99.90
9939;DHT22;5008;50.656;7.188;2024-01-10T16:18:21;-0.10;99.90
9939;DHT22;5008;50.656;7.188;2024-01-10T16:20:47;-0.20;99.90
9939;DHT22;5008;50.656;7.188;2024-01-10T16:23:15;-0.20;99.90
9939;DHT22;5008;50.656;7.188;2024-01-10T16:25:42;-0.10;99.90
9939;DHT22;5008;50.656;7.188;2024-01-10T16:28:09;-0.10;99.90
9939;DHT22;5008;50.656;7.188;2024-01-10T16:30:36;-0.20;99.90
9939;DHT22;5008;50.656;7.188;2024-01-10T16:33:03;-0.30;99.90
9939;DHT22;5008;50.656;7.188;2024-01-10T16:35:30;-0.30;99.90
9939;DHT22;5008;50.656;7.188;2024-01-10T16:37:57;-0.30;99.90
9939;DHT22;5008;50.656;7.188;2024-01-10T16:40:25;-0.40;99.90
9939;DHT22;5008;50.656;7.188;2024-01-10T16:42:53;-0.40;99.90
9939;DHT22;5008;50.656;7.188;2024-01-10T16:45:19;-0.40;99.90
9939;DHT22;5008;50.656;7.188;2024-01-10T16:47:46;-0.50;99.90
9939;DHT22;5008;50.656;7.188;2024-01-10T16:50:13;-0.50;99.90
9939;DHT22;5008;50.656;7.188;2024-01-10T16:52:40;-0.60;99.90
9939;DHT22;5008;50.656;7.188;2024-01-10T16:55:07;-0.70;99.90
9939;DHT22;5008;50.656;7.188;2024-01-10T16:57:35;-0.70;99.90
9939;DHT22;5008;50.656;7.188;2024-01-10T17:00:02;-0.70;99.90
9939;DHT22;5008;50.656;7.188;2024-01-10T17:02:30;-0.80;99.90
9939;DHT22;5008;50.656;7.188;2024-01-10T17:04:56;-0.80;99.90
9939;DHT22;5008;50.656;7.188;2024-01-10T17:07:23;-0.80;99.90
9939;DHT22;5008;50.656;7.188;2024-01-10T17:09:50;-0.80;99.90
9939;DHT22;5008;50.656;7.188;2024-01-10T17:12:18;-0.90;99.90
9939;DHT22;5008;50.656;7.188;2024-01-10T17:14:46;-0.90;99.90
9939;DHT22;5008;50.656;7.188;2024-01-10T17:17:12;-0.90;99.90
9939;DHT22;5008;50.656;7.188;2024-01-10T17:19:39;-1.00;99.90
9939;DHT22;5008;50.656;7.188;2024-01-10T17:22:06;-1.10;99.90
9939;DHT22;5008;50.656;7.188;2024-01-10T17:24:33;-1.20;99.90
9939;DHT22;5008;50.656;7.188;2024-01-10T17:26:59;-1.10;99.90
9939;DHT22;5008;50.656;7.188;2024-01-10T17:29:26;-1.10;99.90
9939;DHT22;5008;50.656;7.188;2024-01-10T17:31:54;-1.20;99.90
9939;DHT22;5008;50.656;7.188;2024-01-10T17:34:21;-1.30;99.90
9939;DHT22;5008;50.656;7.188;2024-01-10T17:36:48;-1.20;99.90
9939;DHT22;5008;50.656;7.188;2024-01-10T17:39:15;-1.30;99.90
9939;DHT22;5008;50.656;7.188;2024-01-10T17:41:41;-1.40;99.90
9939;DHT22;5008;50.656;7.188;2024-01-10T17:44:08;-1.50;99.90
9939;DHT22;5008;50.656;7.188;2024-01-10T17:46:35;-1.50;99.90
9939;DHT22;5008;50.656;7.188;2024-01-10T17:49:03;-1.40;99.90
9939;DHT22;5008;50.656;7.188;2024-01-10T17:51:30;-1.40;99.90
9939;DHT22;5008;50.656;7.188;2024-01-10T17:53:57;-1.30;99.90
9939;DHT22;5008;50.656;7.188;2024-01-10T17:56:24;-1.40;99.90
9939;DHT22;5008;50.656;7.188;2024-01-10T17:58:51;-1.50;99.90
9939;DHT22;5008;50.656;7.188;2024-01-10T18:01:17;-1.60;99.90
9939;DHT22;5008;50.656;7.188;2024-01-10T18:03:44;-1.70;99.90
9939;DHT22;5008;50.656;7.188;2024-01-10T18:06:12;-1.70;99.90
9939;DHT22;5008;50.656;7.188;2024-01-10T18:08:40;-1.70;99.90
9939;DHT22;5008;50.656;7.188;2024-01-10T18:11:07;-1.80;99.90
9939;DHT22;5008;50.656;7.188;2024-01-10T18:13:34;-1.80;99.90
9939;DHT22;5008;50.656;7.188;2024-01-10T18:16:01;-1.80;99.90
9939;DHT22;5008;50.656;7.188;2024-01-10T18:18:28;-1.80;99.90
9939;DHT22;5008;50.656;7.188;2024-01-10T18:20:58;-1.80;99.90
9939;DHT22;5008;50.656;7.188;2024-01-10T18:23:26;-1.90;99.90
9939;DHT22;5008;50.656;7.188;2024-01-10T18:25:53;-1.90;99.90
9939;DHT22;5008;50.656;7.188;2024-01-10T18:28:19;-1.90;99.90
9939;DHT22;5008;50.656;7.188;2024-01-10T18:30:46;-1.80;99.90
9939;DHT22;5008;50.656;7.188;2024-01-10T18:33:14;-1.80;99.90
9939;DHT22;5008;50.656;7.188;2024-01-10T18:35:41;-2.00;99.90
9939;DHT22;5008;50.656;7.188;2024-01-10T18:38:08;-2.10;99.90
9939;DHT22;5008;50.656;7.188;2024-01-10T18:40:36;-2.10;99.90
9939;DHT22;5008;50.656;7.188;2024-01-10T18:43:05;-2.10;99.90
9939;DHT22;5008;50.656;7.188;2024-01-10T18:45:31;-2.00;99.90
9939;DHT22;5008;50.656;7.188;2024-01-10T18:47:58;-2.10;99.90
9939;DHT22;5008;50.656;7.188;2024-01-10T18:50:25;-2.00;99.90
9939;DHT22;5008;50.656;7.188;2024-01-10T18:52:52;-2.10;99.90
9939;DHT22;5008;50.656;7.188;2024-01-10T18:55:21;-2.10;99.90
9939;DHT22;5008;50.656;7.188;2024-01-10T18:57:49;-2.10;99.90
9939;DHT22;5008;50.656;7.188;2024-01-10T19:00:18;-2.10;99.90
9939;DHT22;5008;50.656;7.188;2024-01-10T19:02:48;-2.10;99.90
9939;DHT22;5008;50.656;7.188;2024-01-10T19:05:15;-2.10;99.90
9939;DHT22;5008;50.656;7.188;2024-01-10T19:07:42;-2.20;99.90
9939;DHT22;5008;50.656;7.188;2024-01-10T19:10:09;-2.30;99.90
9939;DHT22;5008;50.656;7.188;2024-01-10T19:12:36;-2.30;99.90
9939;DHT22;5008;50.656;7.188;2024-01-10T19:15:05;-2.40;99.90
9939;DHT22;5008;50.656;7.188;2024-01-10T19:17:33;-2.50;99.90
9939;DHT22;5008;50.656;7.188;2024-01-10T19:20:00;-2.40;99.90
9939;DHT22;5008;50.656;7.188;2024-01-10T19:22:27;-2.40;99.90
9939;DHT22;5008;50.656;7.188;2024-01-10T19:24:54;-2.40;99.90
9939;DHT22;5008;50.656;7.188;2024-01-10T19:27:20;-2.40;99.90
9939;DHT22;5008;50.656;7.188;2024-01-10T19:29:47;-2.40;99.90
9939;DHT22;5008;50.656;7.188;2024-01-10T19:32:15;-2.40;99.90
9939;DHT22;5008;50.656;7.188;2024-01-10T19:34:42;-2.40;99.90
9939;DHT22;5008;50.656;7.188;2024-01-10T19:37:09;-2.50;99.90
9939;DHT22;5008;50.656;7.188;2024-01-10T19:39:36;-2.60;99.90
9939;DHT22;5008;50.656;7.188;2024-01-10T19:42:03;-2.60;99.90
9939;DHT22;5008;50.656;7.188;2024-01-10T19:44:30;-2.60;99.90
9939;DHT22;5008;50.656;7.188;2024-01-10T19:46:57;-2.60;99.90
9939;DHT22;5008;50.656;7.188;2024-01-10T19:49:25;-2.70;99.90
9939;DHT22;5008;50.656;7.188;2024-01-10T19:51:51;-2.70;99.90
9939;DHT22;5008;50.656;7.188;2024-01-10T19:54:18;-2.70;99.90
9939;DHT22;5008;50.656;7.188;2024-01-10T19:56:45;-2.70;99.90
9939;DHT22;5008;50.656;7.188;2024-01-10T19:59:12;-2.60;99.90
9939;DHT22;5008;50.656;7.188;2024-01-10T20:01:39;-2.70;99.90
9939;DHT22;5008;50.656;7.188;2024-01-10T20:04:05;-2.70;99.90
9939;DHT22;5008;50.656;7.188;2024-01-10T20:06:34;-2.70;99.90
9939;DHT22;5008;50.656;7.188;2024-01-10T20:09:00;-2.70;99.90
9939;DHT22;5008;50.656;7.188;2024-01-10T20:11:28;-2.80;99.90
9939;DHT22;5008;50.656;7.188;2024-01-10T20:13:55;-2.70;99.90
9939;DHT22;5008;50.656;7.188;2024-01-10T20:16:22;-2.80;99.90
9939;DHT22;5008;50.656;7.188;2024-01-10T20:18:49;-2.80;99.90
9939;DHT22;5008;50.656;7.188;2024-01-10T20:21:15;-2.70;99.90
9939;DHT22;5008;50.656;7.188;2024-01-10T20:23:44;-2.80;99.90
9939;DHT22;5008;50.656;7.188;2024-01-10T20:26:10;-2.70;99.90
9939;DHT22;5008;50.656;7.188;2024-01-10T20:28:39;-2.70;99.90
9939;DHT22;5008;50.656;7.188;2024-01-10T20:31:05;-2.80;99.90
9939;DHT22;5008;50.656;7.188;2024-01-10T20:33:32;-2.90;99.90
9939;DHT22;5008;50.656;7.188;2024-01-10T20:36:00;-3.00;99.90
9939;DHT22;5008;50.656;7.188;2024-01-10T20:38:27;-3.10;99.90
9939;DHT22;5008;50.656;7.188;2024-01-10T20:40:55;-3.20;99.90
9939;DHT22;5008;50.656;7.188;2024-01-10T20:43:22;-3.10;99.90
9939;DHT22;5008;50.656;7.188;2024-01-10T20:45:52;-3.20;99.90
9939;DHT22;5008;50.656;7.188;2024-01-10T20:48:18;-3.00;99.90
9939;DHT22;5008;50.656;7.188;2024-01-10T20:50:45;-2.90;99.90
9939;DHT22;5008;50.656;7.188;2024-01-10T20:53:12;-3.00;99.90
9939;DHT22;5008;50.656;7.188;2024-01-10T20:55:41;-3.00;99.90
9939;DHT22;5008;50.656;7.188;2024-01-10T20:58:09;-3.10;99.90
9939;DHT22;5008;50.656;7.188;2024-01-10T21:00:36;-3.10;99.90
9939;DHT22;5008;50.656;7.188;2024-01-10T21:03:04;-3.10;99.90
9939;DHT22;5008;50.656;7.188;2024-01-10T21:05:31;-3.10;99.90
9939;DHT22;5008;50.656;7.188;2024-01-10T21:07:59;-3.20;99.90
9939;DHT22;5008;50.656;7.188;2024-01-10T21:10:26;-3.20;99.90
9939;DHT22;5008;50.656;7.188;2024-01-10T21:12:53;-3.20;99.90
9939;DHT22;5008;50.656;7.188;2024-01-10T21:15:21;-3.20;99.90